createdAt,value
2018-04-23T00:02:03.590Z,100490.02
2018-04-23T00:04:32.135Z,100485.50
2018-04-23T00:07:00.686Z,100486.35
2018-04-23T00:09:29.337Z,100488.55
2018-04-23T00:11:57.751Z,100493.57
2018-04-23T00:14:26.163Z,100495.97
2018-04-23T00:16:54.625Z,100495.98
2018-04-23T00:19:22.995Z,100488.91
2018-04-23T00:21:51.503Z,100490.18
2018-04-23T00:24:20.493Z,100485.50
2018-04-23T00:26:48.872Z,100482.09
2018-04-23T00:29:17.269Z,100486.64
2018-04-23T00:31:45.799Z,100480.55
2018-04-23T00:34:14.165Z,100481.48
2018-04-23T00:36:42.570Z,100481.62
2018-04-23T00:39:11.752Z,100472.84
2018-04-23T00:41:40.123Z,100463.30
2018-04-23T00:44:08.479Z,100463.02
2018-04-23T00:46:36.956Z,100463.42
2018-04-23T00:49:05.335Z,100454.80
2018-04-23T00:51:33.746Z,100445.05
2018-04-23T00:54:02.960Z,100449.58
2018-04-23T00:56:31.337Z,100451.70
2018-04-23T00:58:59.713Z,100459.33
2018-04-23T01:01:28.150Z,100471.64
2018-04-23T01:03:56.519Z,100461.96
2018-04-23T01:06:25.631Z,100468.39
2018-04-23T01:08:54.200Z,100469.02
2018-04-23T01:11:22.646Z,100478.44
2018-04-23T01:13:51.007Z,100479.01
2018-04-23T01:16:19.482Z,100476.25
2018-04-23T01:18:47.842Z,100473.67
2018-04-23T01:21:16.255Z,100481.67
2018-04-23T01:23:45.176Z,100484.16
2018-04-23T01:26:13.625Z,100480.31
2018-04-23T01:28:42.056Z,100484.42
2018-04-23T01:31:10.850Z,100475.35
2018-04-23T01:33:40.470Z,100481.51
2018-04-23T01:36:08.879Z,100472.17
2018-04-23T01:38:37.308Z,100476.63
2018-04-23T01:41:06.625Z,100492.95
2018-04-23T01:43:35.012Z,100493.80
2018-04-23T01:46:05.441Z,100494.94
2018-04-23T01:48:33.800Z,100487.52
2018-04-23T01:51:02.194Z,100489.92
2018-04-23T01:53:30.609Z,100486.52
2018-04-23T01:55:58.998Z,100480.66
2018-04-23T01:58:27.381Z,100477.19
2018-04-23T02:00:55.784Z,100471.53
2018-04-23T02:03:24.157Z,100466.23
2018-04-23T02:05:57.333Z,100466.66
2018-04-23T02:08:25.707Z,100463.52
2018-04-23T02:10:54.090Z,100466.88
2018-04-23T02:13:23.267Z,100460.86
2018-04-23T02:15:51.651Z,100460.44
2018-04-23T02:18:20.026Z,100458.97
2018-04-23T02:20:48.475Z,100450.53
2018-04-23T02:23:16.958Z,100453.39
2018-04-23T02:25:45.404Z,100463.43
2018-04-23T02:28:13.966Z,100461.56
2018-04-23T02:30:42.448Z,100463.28
2018-04-23T02:33:10.882Z,100463.70
2018-04-23T02:35:39.364Z,100462.57
2018-04-23T02:38:07.731Z,100462.22
2018-04-23T02:40:36.098Z,100463.84
2018-04-23T02:43:04.477Z,100474.97
2018-04-23T02:45:33.025Z,100470.00
2018-04-23T02:48:01.408Z,100473.97
2018-04-23T02:50:29.985Z,100463.07
2018-04-23T02:52:58.355Z,100453.24
2018-04-23T02:55:26.719Z,100447.25
2018-04-23T02:57:55.245Z,100454.30
2018-04-23T03:00:23.619Z,100446.16
2018-04-23T03:02:51.984Z,100437.75
2018-04-23T03:05:20.856Z,100437.53
2018-04-23T03:07:49.418Z,100438.46
2018-04-23T03:10:17.810Z,100435.16
2018-04-23T03:12:47.751Z,100433.39
2018-04-23T03:15:16.103Z,100433.15
2018-04-23T03:17:44.492Z,100442.58
2018-04-23T03:20:13.725Z,100431.60
2018-04-23T03:22:42.104Z,100433.17
2018-04-23T03:25:10.476Z,100421.43
2018-04-23T03:27:38.860Z,100425.59
2018-04-23T03:30:07.235Z,100437.05
2018-04-23T03:32:35.583Z,100435.15
2018-04-23T03:35:04.079Z,100435.16
2018-04-23T03:37:32.486Z,100432.73
2018-04-23T03:40:00.851Z,100434.86
2018-04-23T03:42:29.600Z,100439.45
2018-04-23T03:44:58.224Z,100432.03
2018-04-23T03:47:27.657Z,100436.14
2018-04-23T03:49:56.347Z,100437.53
2018-04-23T03:52:24.707Z,100447.01
2018-04-23T03:54:53.056Z,100439.73
2018-04-23T03:57:22.190Z,100437.06
2018-04-23T03:59:50.560Z,100442.58
2018-04-23T04:02:18.994Z,100446.28
2018-04-23T04:04:47.406Z,100445.55
2018-04-23T04:07:15.773Z,100437.83
2018-04-23T04:09:44.298Z,100437.32
2018-04-23T04:15:31.469Z,100435.66
2018-04-23T04:18:30.005Z,100432.66
2018-04-23T04:20:59.224Z,100427.86
2018-04-23T04:23:27.578Z,100421.28
2018-04-23T04:25:56.272Z,100426.59
2018-04-23T04:28:24.647Z,100431.25
2018-04-23T04:30:53.045Z,100430.97
2018-04-23T04:33:21.502Z,100429.70
2018-04-23T04:35:49.883Z,100433.09
2018-04-23T04:38:18.367Z,100434.00
2018-04-23T04:40:46.843Z,100434.85
2018-04-23T04:43:15.249Z,100439.17
2018-04-23T04:45:43.698Z,100445.53
2018-04-23T04:48:12.106Z,100447.55
2018-04-23T04:50:40.503Z,100450.30
2018-04-23T04:53:08.915Z,100447.94
2018-04-23T04:55:37.331Z,100447.64
2018-04-23T04:58:05.715Z,100452.88
2018-04-23T05:00:34.077Z,100442.34
2018-04-23T05:03:02.466Z,100447.72
2018-04-23T05:05:30.849Z,100443.83
2018-04-23T05:07:59.274Z,100450.87
2018-04-23T05:10:27.793Z,100457.37
2018-04-23T05:12:56.152Z,100457.02
2018-04-23T05:15:24.528Z,100460.09
2018-04-23T05:17:59.710Z,100457.06
2018-04-23T05:20:28.285Z,100457.77
2018-04-23T05:22:56.780Z,100472.18
2018-04-23T05:25:25.252Z,100468.64
2018-04-23T05:27:53.628Z,100468.39
2018-04-23T05:30:22.211Z,100478.71
2018-04-23T05:32:50.588Z,100486.41
2018-04-23T05:35:19.177Z,100488.63
2018-04-23T05:37:47.561Z,100487.63
2018-04-23T05:40:15.974Z,100496.31
2018-04-23T05:42:44.512Z,100501.26
2018-04-23T05:45:12.958Z,100498.79
2018-04-23T05:47:41.440Z,100512.50
2018-04-23T05:50:10.151Z,100516.73
2018-04-23T05:52:38.736Z,100522.77
2018-04-23T05:55:07.080Z,100534.42
2018-04-23T05:57:35.441Z,100524.00
2018-04-23T06:00:03.837Z,100524.83
2018-04-23T06:02:32.459Z,100512.97
2018-04-23T06:05:00.833Z,100538.16
2018-04-23T06:07:29.225Z,100546.59
2018-04-23T06:09:57.644Z,100552.73
2018-04-23T06:12:26.291Z,100545.74
2018-04-23T06:14:54.892Z,100549.14
2018-04-23T06:17:23.252Z,100552.11
2018-04-23T06:19:51.621Z,100555.70
2018-04-23T06:22:20.664Z,100556.28
2018-04-23T06:24:49.094Z,100566.30
2018-04-23T06:27:17.994Z,100571.94
2018-04-23T06:29:46.978Z,100573.47
2018-04-23T06:32:15.421Z,100579.64
2018-04-23T06:34:43.829Z,100584.45
2018-04-23T06:37:12.332Z,100590.03
2018-04-23T06:39:40.744Z,100590.06
2018-04-23T06:42:09.317Z,100586.89
2018-04-23T06:44:38.175Z,100601.55
2018-04-23T06:47:06.540Z,100598.05
2018-04-23T06:49:34.919Z,100599.14
2018-04-23T06:52:04.131Z,100598.37
2018-04-23T06:54:32.494Z,100597.06
2018-04-23T06:57:00.853Z,100595.93
2018-04-23T06:59:30.588Z,100587.80
2018-04-23T07:01:59.159Z,100612.08
2018-04-23T07:04:27.500Z,100609.03
2018-04-23T07:06:56.541Z,100608.08
2018-04-23T07:09:25.026Z,100614.28
2018-04-23T07:11:53.422Z,100616.48
2018-04-23T07:14:22.031Z,100628.30
2018-04-23T07:16:50.459Z,100614.91
2018-04-23T07:19:18.991Z,100618.62
2018-04-23T07:21:48.171Z,100621.42
2018-04-23T07:24:16.624Z,100631.84
2018-04-23T07:26:45.235Z,100632.80
2018-04-23T07:29:14.243Z,100632.86
2018-04-23T07:31:42.621Z,100641.36
2018-04-23T07:34:11.064Z,100638.41
2018-04-23T07:36:40.308Z,100626.97
2018-04-23T07:39:08.794Z,100636.77
2018-04-23T07:41:37.169Z,100636.14
2018-04-23T07:44:05.653Z,100642.84
2018-04-23T07:46:34.010Z,100648.92
2018-04-23T07:49:02.401Z,100645.66
2018-04-23T07:51:30.788Z,100652.62
2018-04-23T07:53:59.215Z,100666.90
2018-04-23T07:56:27.592Z,100665.48
2018-04-23T07:58:55.986Z,100665.27
2018-04-23T08:01:24.556Z,100661.08
2018-04-23T08:03:52.939Z,100661.73
2018-04-23T08:06:21.373Z,100669.56
2018-04-23T08:08:49.847Z,100663.42
2018-04-23T08:11:18.299Z,100661.13
2018-04-23T08:13:47.581Z,100660.17
2018-04-23T08:16:16.012Z,100673.18
2018-04-23T08:18:44.438Z,100677.33
2018-04-23T08:21:12.944Z,100687.09
2018-04-23T08:23:41.496Z,100684.36
2018-04-23T08:26:09.897Z,100702.01
2018-04-23T08:28:38.498Z,100702.69
2018-04-23T08:31:06.860Z,100715.00
2018-04-23T08:33:35.220Z,100705.77
2018-04-23T08:36:04.008Z,100708.45
2018-04-23T08:38:32.441Z,100717.09
2018-04-23T08:41:01.803Z,100724.80
2018-04-23T08:43:30.318Z,100728.31
2018-04-23T08:45:58.725Z,100738.04
2018-04-23T08:48:27.106Z,100729.94
2018-04-23T08:50:55.670Z,100730.95
2018-04-23T08:53:23.893Z,100732.30
2018-04-23T08:55:52.280Z,100733.06
2018-04-23T08:58:20.902Z,100732.06
2018-04-23T09:00:49.271Z,100738.87
2018-04-23T09:03:17.624Z,100751.69
2018-04-23T09:05:46.093Z,100753.03
2018-04-23T09:08:14.501Z,100753.47
2018-04-23T09:10:42.880Z,100760.01
2018-04-23T09:13:11.329Z,100763.03
2018-04-23T09:15:39.973Z,100764.28
2018-04-23T09:18:08.476Z,100771.38
2018-04-23T09:20:40.421Z,100775.11
2018-04-23T09:23:08.869Z,100773.83
2018-04-23T09:25:37.236Z,100769.25
2018-04-23T09:28:06.564Z,100768.40
2018-04-23T09:30:34.953Z,100780.70
2018-04-23T09:33:03.440Z,100779.31
2018-04-23T09:35:36.898Z,100790.14
2018-04-23T09:38:05.280Z,100785.31
2018-04-23T09:40:33.627Z,100790.83
2018-04-23T09:43:02.090Z,100792.09
2018-04-23T09:45:30.469Z,100786.17
2018-04-23T09:47:58.856Z,100790.06
2018-04-23T09:50:28.033Z,100803.14
2018-04-23T09:52:56.384Z,100800.93
2018-04-23T09:55:24.743Z,100801.09
2018-04-23T09:57:53.224Z,100805.64
2018-04-23T10:00:27.321Z,100807.72
2018-04-23T10:02:58.195Z,100810.16
2018-04-23T10:05:27.015Z,100808.52
2018-04-23T10:07:55.364Z,100807.70
2018-04-23T10:10:23.789Z,100819.69
2018-04-23T10:12:52.135Z,100812.95
2018-04-23T10:15:20.544Z,100824.98
2018-04-23T10:17:49.070Z,100821.85
2018-04-23T10:20:17.551Z,100819.33
2018-04-23T10:22:45.933Z,100821.20
2018-04-23T10:25:14.583Z,100828.81
2018-04-23T10:27:43.140Z,100827.22
2018-04-23T10:30:11.551Z,100830.80
2018-04-23T10:32:40.672Z,100845.78
2018-04-23T10:35:09.138Z,100848.58
2018-04-23T10:37:37.874Z,100848.06
2018-04-23T10:40:09.824Z,100843.57
2018-04-23T10:42:38.196Z,100843.19
2018-04-23T10:45:06.539Z,100848.30
2018-04-23T10:47:35.111Z,100848.98
2018-04-23T10:50:03.486Z,100850.77
2018-04-23T10:52:31.839Z,100836.16
2018-04-23T10:55:01.074Z,100852.56
2018-04-23T10:57:29.439Z,100841.06
2018-04-23T10:59:57.843Z,100847.55
2018-04-23T11:02:26.972Z,100851.89
2018-04-23T11:04:55.312Z,100852.61
2018-04-23T11:07:23.684Z,100861.20
2018-04-23T11:09:52.205Z,100850.58
2018-04-23T11:12:20.583Z,100846.16
2018-04-23T11:14:49.111Z,100841.20
2018-04-23T11:17:17.514Z,100843.70
2018-04-23T11:19:45.892Z,100837.50
2018-04-23T11:22:14.292Z,100839.50
2018-04-23T11:24:42.832Z,100847.70
2018-04-23T11:27:11.160Z,100854.34
2018-04-23T11:29:39.537Z,100853.40
2018-04-23T11:32:09.759Z,100854.59
2018-04-23T11:34:38.215Z,100867.39
2018-04-23T11:37:06.579Z,100873.27
2018-04-23T11:39:36.550Z,100854.20
2018-04-23T11:42:04.869Z,100855.39
2018-04-23T11:44:33.244Z,100857.61
2018-04-23T11:47:01.637Z,100861.87
2018-04-23T11:49:30.060Z,100862.75
2018-04-23T11:51:58.415Z,100861.02
2018-04-23T11:54:28.356Z,100864.23
2018-04-23T11:56:56.739Z,100872.91
2018-04-23T11:59:25.068Z,100876.31
2018-04-23T12:01:53.502Z,100872.77
2018-04-23T12:04:21.882Z,100877.50
2018-04-23T12:06:50.301Z,100881.41
2018-04-23T12:09:19.194Z,100871.85
2018-04-23T12:11:47.665Z,100875.30
2018-04-23T12:14:16.351Z,100878.39
2018-04-23T12:16:45.551Z,100872.25
2018-04-23T12:19:13.937Z,100877.73
2018-04-23T12:21:42.551Z,100880.94
2018-04-23T12:24:11.745Z,100883.22
2018-04-23T12:26:40.202Z,100883.78
2018-04-23T12:29:08.699Z,100882.45
2018-04-23T12:31:37.875Z,100895.94
2018-04-23T12:34:06.250Z,100877.98
2018-04-23T12:36:34.645Z,100890.63
2018-04-23T12:39:03.332Z,100885.77
2018-04-23T12:41:31.702Z,100903.92
2018-04-23T12:44:00.071Z,100898.30
2018-04-23T12:46:28.886Z,100898.16
2018-04-23T12:48:57.264Z,100908.09
2018-04-23T12:51:25.643Z,100909.36
2018-04-23T12:53:54.112Z,100909.06
2018-04-23T12:56:22.517Z,100903.62
2018-04-23T12:58:50.878Z,100906.43
2018-04-23T13:01:19.362Z,100904.98
2018-04-23T13:03:47.738Z,100899.78
2018-04-23T13:06:16.063Z,100898.57
2018-04-23T13:08:45.954Z,100911.77
2018-04-23T13:11:14.335Z,100908.17
2018-04-23T13:13:43.097Z,100912.36
2018-04-23T13:16:12.712Z,100896.20
2018-04-23T13:18:41.178Z,100892.65
2018-04-23T13:21:09.904Z,100904.32
2018-04-23T13:23:38.750Z,100900.47
2018-04-23T13:26:07.868Z,100899.98
2018-04-23T13:28:36.224Z,100894.39
2018-04-23T13:31:05.147Z,100906.52
2018-04-23T13:33:33.505Z,100895.98
2018-04-23T13:36:02.077Z,100904.64
2018-04-23T13:38:31.032Z,100908.44
2018-04-23T13:41:00.331Z,100912.38
2018-04-23T13:43:28.665Z,100909.02
2018-04-23T13:45:57.124Z,100918.31
2018-04-23T13:48:25.485Z,100913.29
2018-04-23T13:50:54.193Z,100909.56
2018-04-23T13:53:22.581Z,100907.52
2018-04-23T13:55:50.968Z,100915.18
2018-04-23T13:58:19.315Z,100907.39
2018-04-23T14:00:47.767Z,100912.39
2018-04-23T14:03:16.163Z,100911.25
2018-04-23T14:05:44.554Z,100908.11
2018-04-23T14:08:13.259Z,100920.20
2018-04-23T14:10:43.804Z,100910.15
2018-04-23T14:13:12.198Z,100909.23
2018-04-23T14:15:40.669Z,100915.47
2018-04-23T14:18:09.059Z,100917.83
2018-04-23T14:20:37.449Z,100935.46
2018-04-23T14:23:07.056Z,100918.76
2018-04-23T14:25:35.436Z,100924.67
2018-04-23T14:28:03.800Z,100918.41
2018-04-23T14:30:32.765Z,100936.56
2018-04-23T14:33:01.181Z,100928.63
2018-04-23T14:35:29.535Z,100921.31
2018-04-23T14:37:58.004Z,100920.72
2018-04-23T14:40:26.422Z,100923.03
2018-04-23T14:42:54.749Z,100930.95
2018-04-23T14:45:23.162Z,100928.27
2018-04-23T14:47:51.751Z,100919.58
2018-04-23T14:50:20.074Z,100934.22
2018-04-23T14:52:48.466Z,100934.86
2018-04-23T14:55:16.841Z,100927.20
2018-04-23T14:57:45.263Z,100919.38
2018-04-23T15:00:15.114Z,100926.01
2018-04-23T15:02:43.542Z,100932.77
2018-04-23T15:05:11.916Z,100923.42
2018-04-23T15:07:41.052Z,100926.21
2018-04-23T15:10:09.494Z,100915.95
2018-04-23T15:12:38.161Z,100936.48
2018-04-23T15:15:06.782Z,100930.06
2018-04-23T15:17:35.272Z,100934.95
2018-04-23T15:20:03.602Z,100939.26
2018-04-23T15:22:32.480Z,100934.60
2018-04-23T15:25:00.856Z,100928.53
2018-04-23T15:27:30.043Z,100949.20
2018-04-23T15:29:58.421Z,100934.83
2018-04-23T15:32:26.965Z,100938.25
2018-04-23T15:34:55.484Z,100939.75
2018-04-23T15:37:24.035Z,100935.63
2018-04-23T15:39:52.361Z,100931.23
2018-04-23T15:42:20.722Z,100945.58
2018-04-23T15:44:49.119Z,100933.59
2018-04-23T15:47:17.466Z,100954.55
2018-04-23T15:49:45.833Z,100952.90
2018-04-23T15:52:15.021Z,100948.79
2018-04-23T15:54:43.426Z,100947.41
2018-04-23T15:57:11.787Z,100940.61
2018-04-23T15:59:40.218Z,100944.79
2018-04-23T16:02:08.707Z,100940.19
2018-04-23T16:04:37.190Z,100946.95
2018-04-23T16:07:07.544Z,100938.00
2018-04-23T16:09:36.267Z,100939.06
2018-04-23T16:12:04.692Z,100937.97
2018-04-23T16:14:33.300Z,100942.92
2018-04-23T16:17:01.703Z,100941.31
2018-04-23T16:19:30.178Z,100939.63
2018-04-23T16:21:58.959Z,100943.75
2018-04-23T16:24:27.721Z,100950.19
2018-04-23T16:26:56.318Z,100946.16
2018-04-23T16:29:25.008Z,100961.23
2018-04-23T16:31:53.390Z,100957.36
2018-04-23T16:34:22.577Z,100960.75
2018-04-23T16:36:51.055Z,100949.16
2018-04-23T16:39:19.484Z,100963.55
2018-04-23T16:41:47.868Z,100960.77
2018-04-23T16:44:16.834Z,100967.38
2018-04-23T16:46:45.208Z,100967.41
2018-04-23T16:49:13.628Z,100969.77
2018-04-23T16:51:42.507Z,100970.09
2018-04-23T16:54:10.896Z,100978.07
2018-04-23T16:56:42.399Z,100975.14
2018-04-23T16:59:11.322Z,100974.93
2018-04-23T17:01:39.712Z,100968.95
2018-04-23T17:04:08.164Z,100964.91
2018-04-23T17:06:36.672Z,100962.48
2018-04-23T17:09:05.151Z,100970.42
2018-04-23T17:14:17.745Z,100977.72
2018-04-23T17:16:46.232Z,100979.06
2018-04-23T17:19:14.675Z,100977.92
2018-04-23T17:21:43.024Z,100979.01
2018-04-23T17:24:11.513Z,100980.58
2018-04-23T17:26:40.141Z,100985.50
2018-04-23T17:29:08.804Z,100983.98
2018-04-23T17:31:37.283Z,100990.24
2018-04-23T17:34:05.637Z,100989.21
2018-04-23T17:36:34.020Z,100999.91
2018-04-23T17:39:02.420Z,100998.48
2018-04-23T17:41:30.872Z,100992.08
2018-04-23T17:43:59.236Z,100999.45
2018-04-23T17:46:28.112Z,101009.98
2018-04-23T17:48:56.512Z,100997.03
2018-04-23T17:51:24.884Z,101004.09
2018-04-23T17:53:54.069Z,100998.44
2018-04-23T17:56:22.438Z,100999.59
2018-04-23T17:58:50.816Z,100996.80
2018-04-23T18:01:19.201Z,100998.91
2018-04-23T18:03:47.615Z,101012.31
2018-04-23T18:06:15.999Z,101009.74
2018-04-23T18:08:44.598Z,101014.98
2018-04-23T18:11:13.047Z,101016.91
2018-04-23T18:13:41.503Z,101022.12
2018-04-23T18:16:11.015Z,101036.54
2018-04-23T18:18:39.512Z,101034.15
2018-04-23T18:21:08.046Z,101035.72
2018-04-23T18:23:36.875Z,101032.02
2018-04-23T18:26:05.671Z,101042.94
2018-04-23T18:28:34.060Z,101041.06
2018-04-23T18:31:03.258Z,101043.36
2018-04-23T18:33:32.058Z,101041.71
2018-04-23T18:36:00.543Z,101040.12
2018-04-23T18:38:29.596Z,101044.87
2018-04-23T18:40:57.956Z,101042.20
2018-04-23T18:43:26.341Z,101047.40
2018-04-23T18:45:54.973Z,101051.83
2018-04-23T18:48:23.402Z,101051.94
2018-04-23T18:50:51.823Z,101056.52
2018-04-23T18:53:20.751Z,101062.48
2018-04-23T18:55:49.159Z,101063.87
2018-04-23T18:58:17.710Z,101064.94
2018-04-23T19:00:46.194Z,101066.53
2018-04-23T19:03:14.614Z,101068.47
2018-04-23T19:05:43.218Z,101075.34
2018-04-23T19:08:11.808Z,101075.77
2018-04-23T19:10:40.334Z,101066.91
2018-04-23T19:13:08.909Z,101072.75
2018-04-23T19:15:38.902Z,101078.18
2018-04-23T19:18:07.475Z,101081.55
2018-04-23T19:20:36.402Z,101076.06
2018-04-23T19:23:05.290Z,101079.48
2018-04-23T19:25:33.769Z,101082.42
2018-04-23T19:28:02.173Z,101082.55
2018-04-23T19:30:30.790Z,101086.80
2018-04-23T19:32:59.165Z,101090.44
2018-04-23T19:35:27.578Z,101089.44
2018-04-23T19:37:56.796Z,101084.95
2018-04-23T19:40:25.189Z,101090.03
2018-04-23T19:42:53.688Z,101100.19
2018-04-23T19:45:22.286Z,101096.39
2018-04-23T19:47:50.803Z,101101.75
2018-04-23T19:50:19.361Z,101092.88
2018-04-23T19:52:48.476Z,101095.81
2018-04-23T19:55:17.501Z,101080.05
2018-04-23T19:57:46.066Z,101085.72
2018-04-23T20:00:14.723Z,101084.02
2018-04-23T20:02:43.433Z,101083.47
2018-04-23T20:05:11.869Z,101084.06
2018-04-23T20:07:41.066Z,101085.94
2018-04-23T20:10:09.528Z,101087.27
2018-04-23T20:12:38.455Z,101084.98
2018-04-23T20:15:07.073Z,101083.42
2018-04-23T20:17:35.775Z,101085.61
2018-04-23T20:20:04.212Z,101082.52
2018-04-23T20:22:32.710Z,101083.25
2018-04-23T20:25:01.096Z,101088.64
2018-04-23T20:27:29.494Z,101084.79
2018-04-23T20:29:58.810Z,101084.00
2018-04-23T20:32:27.224Z,101088.59
2018-04-23T20:34:55.604Z,101085.21
2018-04-23T20:37:24.099Z,101079.23
2018-04-23T20:39:52.467Z,101086.70
2018-04-23T20:42:20.933Z,101081.16
2018-04-23T20:44:49.380Z,101089.80
2018-04-23T20:47:17.789Z,101082.70
2018-04-23T20:49:46.211Z,101086.11
2018-04-23T20:52:14.800Z,101084.14
2018-04-23T20:54:43.209Z,101084.87
2018-04-23T20:57:11.666Z,101087.87
2018-04-23T20:59:41.171Z,101090.00
2018-04-23T21:02:09.782Z,101086.38
2018-04-23T21:04:38.381Z,101086.61
2018-04-23T21:07:07.112Z,101084.80
2018-04-23T21:09:35.658Z,101084.23
2018-04-23T21:12:04.134Z,101082.18
2018-04-23T21:14:33.179Z,101081.37
2018-04-23T21:17:01.592Z,101082.33
2018-04-23T21:19:30.319Z,101086.86
2018-04-23T21:21:58.927Z,101085.53
2018-04-23T21:24:27.303Z,101084.72
2018-04-23T21:26:55.694Z,101088.30
2018-04-23T21:29:24.081Z,101085.34
2018-04-23T21:31:52.459Z,101083.33
2018-04-23T21:34:20.835Z,101080.18
2018-04-23T21:36:50.417Z,101085.52
2018-04-23T21:39:18.833Z,101088.02
2018-04-23T21:41:47.294Z,101089.29
2018-04-23T21:44:15.836Z,101095.00
2018-04-23T21:46:44.448Z,101097.66
2018-04-23T21:49:12.927Z,101092.14
2018-04-23T21:51:41.661Z,101087.33
2018-04-23T21:54:10.032Z,101086.75
2018-04-23T21:56:38.590Z,101084.67
2018-04-23T21:59:08.690Z,101086.03
2018-04-23T22:01:37.618Z,101085.38
2018-04-23T22:04:06.118Z,101088.47
2018-04-23T22:06:34.551Z,101090.52
2018-04-23T22:09:02.909Z,101084.05
2018-04-23T22:11:31.329Z,101087.68
2018-04-23T22:13:59.774Z,101089.62
2018-04-23T22:16:28.168Z,101090.14
2018-04-23T22:18:56.569Z,101083.94
2018-04-23T22:21:25.017Z,101089.91
2018-04-23T22:23:53.348Z,101089.62
2018-04-23T22:26:21.751Z,101085.25
2018-04-23T22:28:50.148Z,101090.41
2018-04-23T22:31:18.529Z,101085.47
2018-04-23T22:33:46.886Z,101085.80
2018-04-23T22:36:15.391Z,101089.59
2018-04-23T22:38:43.770Z,101096.14
2018-04-23T22:41:13.561Z,101094.13
2018-04-23T22:43:42.243Z,101088.52
2018-04-23T22:46:10.587Z,101082.20
2018-04-23T22:48:38.982Z,101083.14
2018-04-23T22:51:07.405Z,101079.23
2018-04-23T22:53:35.843Z,101084.48
2018-04-23T22:56:04.288Z,101073.89
2018-04-23T22:58:32.752Z,101077.09
2018-04-23T23:01:01.146Z,101074.75
2018-04-23T23:03:29.526Z,101073.38
2018-04-23T23:05:58.880Z,101078.09
2018-04-23T23:08:27.446Z,101070.20
2018-04-23T23:10:55.971Z,101062.05
2018-04-23T23:13:24.400Z,101059.95
2018-04-23T23:15:52.938Z,101055.19
2018-04-23T23:18:21.456Z,101057.75
2018-04-23T23:20:50.969Z,101056.17
2018-04-23T23:23:20.544Z,101045.23
2018-04-23T23:25:49.116Z,101040.86
2018-04-23T23:28:18.373Z,101037.28
2018-04-23T23:30:46.944Z,101023.94
2018-04-23T23:33:15.382Z,101014.86
2018-04-23T23:35:43.801Z,101014.19
2018-04-23T23:38:12.211Z,101010.65
